Time;durP1;ratioP1;P1;durP2;ratioP2;P2;SDS_P1;SDS_P2;PMS_P1;PMS_P2;Temp;Humidity;BMP_temperature;BMP_pressure;BME280_temperature;BME280_humidity;BME280_pressure;Samples;Min_cycle;Max_cycle;Signal;HPM_P1;HPM_P2
2021/07/02 07:08:59;;;;;;;28.02;16.67;;;;;;;15.09;96.72;101206.28;5002850;28;20547;-83
2021/07/02 07:11:24;;;;;;;29.08;16.30;;;;;;;15.11;96.52;101209.66;4972866;28;20049;-85
2021/07/02 07:13:49;;;;;;;29.50;16.23;;;;;;;15.20;96.48;101218.53;4986236;28;20034;-84
2021/07/02 07:16:17;;;;;;;31.67;16.60;;;;;;;15.29;95.32;101219.28;4989286;28;20046;-84
2021/07/02 07:18:42;;;;;;;25.58;16.08;;;;;;;15.24;93.57;101216.28;4988103;28;20045;-85
2021/07/02 07:21:08;;;;;;;23.95;15.23;;;;;;;15.28;92.81;101214.91;4991714;28;20095;-85
2021/07/02 07:23:33;;;;;;;25.35;15.70;;;;;;;15.29;93.20;101212.00;4991571;28;20459;-85
2021/07/02 07:25:59;;;;;;;26.50;15.05;;;;;;;15.31;92.18;101214.53;4983410;28;20038;-85
2021/07/02 07:28:25;;;;;;;27.88;14.43;;;;;;;15.32;91.51;101219.72;4985660;28;20196;-85
2021/07/02 07:30:53;;;;;;;21.83;12.85;;;;;;;15.33;89.91;101217.88;4956963;28;20042;-86
2021/07/02 07:33:22;;;;;;;23.50;13.40;;;;;;;15.35;90.81;101216.66;4941109;28;20047;-85
2021/07/02 07:35:49;;;;;;;22.58;13.75;;;;;;;15.42;92.06;101222.19;4965215;28;20402;-84
2021/07/02 07:38:21;;;;;;;23.20;13.80;;;;;;;15.42;89.79;101222.19;4947125;28;20094;-86
2021/07/02 07:40:48;;;;;;;22.23;13.47;;;;;;;15.45;89.60;101219.09;4915101;28;20441;-85
2021/07/02 07:46:48;;;;;;;24.85;13.95;;;;;;;15.66;89.11;101217.53;4927448;29;20815;-86
2021/07/02 07:52:59;;;;;;;28.00;15.60;;;;;;;15.70;89.39;101224.25;4853982;29;20640;-86
2021/07/02 07:55:26;;;;;;;23.85;14.30;;;;;;;15.73;87.63;101224.72;4843661;29;20108;-85
2021/07/02 07:57:52;;;;;;;25.67;15.43;;;;;;;15.86;88.97;101226.78;4833438;29;20647;-86
2021/07/02 08:00:28;;;;;;;26.15;14.80;;;;;;;15.79;85.61;101226.69;4800972;29;20035;-85
2021/07/02 08:02:59;;;;;;;25.77;14.48;;;;;;;15.81;87.06;101226.50;4797435;29;20042;-86
2021/07/02 08:05:25;;;;;;;22.40;13.38;;;;;;;15.92;87.34;101222.47;4814692;29;20049;-86
2021/07/02 08:07:54;;;;;;;25.63;14.43;;;;;;;16.07;85.92;101225.16;4860652;29;20143;-83
2021/07/02 08:10:26;;;;;;;26.40;14.32;;;;;;;16.13;86.96;101230.63;4847157;29;20059;-85
2021/07/02 08:12:52;;;;;;;25.63;15.45;;;;;;;16.15;85.28;101222.34;4861165;29;20772;-86
2021/07/02 08:15:18;;;;;;;27.70;16.50;;;;;;;16.16;85.83;101227.53;4892424;29;20050;-86
2021/07/02 08:17:44;;;;;;;28.67;16.23;;;;;;;16.26;86.53;101227.25;4902718;29;20040;-87
2021/07/02 08:20:12;;;;;;;22.70;14.52;;;;;;;16.25;85.41;101225.56;4877047;29;20410;-86
2021/07/02 08:22:41;;;;;;;24.77;14.15;;;;;;;16.35;86.44;101227.97;4892745;29;20048;-86
2021/07/02 08:30:55;;;;;;;20.90;13.93;;;;;;;16.32;85.38;101228.38;4904916;28;20493;-86
2021/07/02 08:33:21;;;;;;;18.38;12.10;;;;;;;16.37;84.99;101220.47;4943795;28;20039;-85
2021/07/02 08:35:47;;;;;;;23.38;12.70;;;;;;;16.42;85.07;101228.88;4960895;28;20043;-85
2021/07/02 08:38:34;;;;;;;18.95;12.93;;;;;;;16.44;85.70;101227.66;4946960;28;20054;-86
2021/07/02 08:41:03;;;;;;;20.67;13.00;;;;;;;16.50;84.56;101226.03;4932638;28;20187;-86
2021/07/02 08:43:29;;;;;;;22.98;13.52;;;;;;;16.43;83.23;101220.56;4950895;28;20050;-85
2021/07/02 08:45:57;;;;;;;18.90;13.30;;;;;;;16.61;83.64;101222.00;4931199;28;20077;-86
2021/07/02 08:48:25;;;;;;;19.88;13.60;;;;;;;16.73;82.64;101217.72;4930866;28;20046;-87
2021/07/02 08:54:17;;;;;;;18.83;12.60;;;;;;;16.89;82.95;101217.50;4962169;28;20181;-87
2021/07/02 08:57:26;;;;;;;19.20;12.68;;;;;;;16.87;82.63;101222.25;4945892;28;20043;-86
2021/07/02 09:00:19;;;;;;;18.50;12.23;;;;;;;16.84;81.73;101230.78;4875532;29;20652;-86
2021/07/02 09:02:45;;;;;;;20.02;11.85;;;;;;;16.75;81.44;101226.50;4861837;29;20041;-87
2021/07/02 09:05:39;;;;;;;19.73;12.48;;;;;;;16.71;82.19;101230.63;4857517;29;20120;-86
2021/07/02 09:19:02;;;;;;;13.07;7.63;;;;;;;17.06;77.78;101244.31;4883487;29;20101;-87
2021/07/02 09:22:28;;;;;;;15.73;8.30;;;;;;;17.15;78.44;101229.59;4827764;29;20049;-86
2021/07/02 09:25:51;;;;;;;13.73;7.85;;;;;;;17.21;77.41;101236.94;4808530;29;20038;-85
2021/07/02 09:28:36;;;;;;;13.13;8.93;;;;;;;17.28;77.92;101237.81;4843715;29;20454;-87
2021/07/02 09:38:20;;;;;;;10.95;7.40;;;;;;;17.44;76.69;101239.41;4845134;29;20091;-87
2021/07/02 09:40:48;;;;;;;11.20;6.93;;;;;;;17.43;77.90;101245.00;4859606;29;20076;-86
2021/07/02 09:43:18;;;;;;;13.60;8.75;;;;;;;17.50;78.38;101241.31;4907596;29;20140;-87
2021/07/02 09:45:50;;;;;;;12.50;8.40;;;;;;;17.53;77.44;101240.91;4910418;29;20586;-86
2021/07/02 09:48:18;;;;;;;11.82;7.97;;;;;;;17.62;77.46;101247.00;4915100;29;20618;-87
2021/07/02 09:50:44;;;;;;;12.70;8.15;;;;;;;17.65;77.21;101243.06;4911004;29;20488;-86
2021/07/02 09:53:10;;;;;;;11.93;8.05;;;;;;;17.73;78.42;101243.75;4956553;28;20045;-86
2021/07/02 09:55:43;;;;;;;10.38;6.60;;;;;;;17.69;72.23;101249.75;4993106;28;20168;-86
2021/07/02 09:58:14;;;;;;;10.75;5.68;;;;;;;17.59;72.22;101252.84;5004809;28;20042;-86
2021/07/02 10:00:45;;;;;;;10.75;6.47;;;;;;;17.70;74.42;101257.72;4993153;28;20536;-86
2021/07/02 10:03:11;;;;;;;8.43;5.88;;;;;;;17.85;73.03;101256.78;4988864;28;20100;-87
2021/07/02 10:06:18;;;;;;;8.38;5.80;;;;;;;17.84;72.03;101260.50;5004096;28;20130;-87
2021/07/02 10:08:43;;;;;;;11.65;7.93;;;;;;;17.90;72.80;101259.75;4961529;28;20040;-86
2021/07/02 10:11:10;;;;;;;11.35;7.30;;;;;;;17.87;71.72;101269.13;4986379;28;20049;-86
2021/07/02 10:13:39;;;;;;;9.10;6.07;;;;;;;17.90;72.20;101265.16;4979119;28;20050;-87
2021/07/02 10:16:06;;;;;;;10.50;7.03;;;;;;;17.95;71.92;101265.38;4989461;28;20044;-87
2021/07/02 10:18:56;;;;;;;11.07;7.55;;;;;;;17.93;74.11;101275.63;4988884;28;20079;-86
2021/07/02 10:21:23;;;;;;;12.88;7.88;;;;;;;17.85;73.34;101270.34;4984163;28;20157;-87
2021/07/02 10:23:51;;;;;;;11.27;8.68;;;;;;;18.04;75.31;101277.78;4996098;28;20504;-86
2021/07/02 10:26:19;;;;;;;15.50;9.25;;;;;;;18.11;75.27;101283.22;4966190;28;20490;-86
2021/07/02 10:28:45;;;;;;;18.40;9.68;;;;;;;18.11;75.49;101277.78;4992072;28;20041;-85
2021/07/02 10:31:12;;;;;;;14.52;9.93;;;;;;;18.10;75.01;101279.66;5003947;28;20038;-86
2021/07/02 10:33:44;;;;;;;14.38;9.98;;;;;;;18.10;74.27;101276.97;5006771;28;20159;-86
2021/07/02 10:36:11;;;;;;;13.52;9.70;;;;;;;18.23;76.22;101285.16;5007371;28;20050;-87
2021/07/02 10:38:42;;;;;;;16.55;9.63;;;;;;;18.19;74.92;101280.34;4976002;28;20307;-86
2021/07/02 10:41:32;;;;;;;13.43;9.93;;;;;;;18.11;74.05;101283.22;5007047;28;20041;-86
2021/07/02 10:54:32;;;;;;;15.25;9.55;;;;;;;18.08;74.55;101286.34;4969943;28;20397;-85
2021/07/02 10:57:03;;;;;;;15.25;10.45;;;;;;;18.17;75.69;101293.28;4955137;28;20054;-89
2021/07/02 11:00:33;;;;;;;15.27;9.85;;;;;;;18.22;76.79;101286.19;4968481;28;20042;-86
2021/07/02 11:03:21;;;;;;;16.95;10.07;;;;;;;18.33;75.74;101286.66;4919371;28;20042;-87
2021/07/02 11:05:46;;;;;;;14.73;10.20;;;;;;;18.44;76.05;101286.06;4980716;28;20517;-88
2021/07/02 11:08:42;;;;;;;13.88;10.02;;;;;;;18.43;72.78;101276.22;4989218;28;20049;-86
2021/07/02 11:11:19;;;;;;;13.70;9.20;;;;;;;18.40;74.13;101282.91;4982009;28;20554;-87
2021/07/02 11:14:09;;;;;;;12.23;9.52;;;;;;;18.64;73.13;101283.38;5003467;28;20064;-86
2021/07/02 11:17:13;;;;;;;15.13;10.05;;;;;;;18.85;73.07;101286.00;4970739;28;20174;-86
2021/07/02 11:19:38;;;;;;;14.55;9.43;;;;;;;18.92;71.59;101286.81;4981743;28;20247;-86
2021/07/02 11:22:27;;;;;;;13.27;8.80;;;;;;;19.07;70.25;101283.91;4998901;28;20062;-86
2021/07/02 11:25:05;;;;;;;13.15;8.50;;;;;;;19.14;70.99;101279.31;4999133;28;20042;-86
2021/07/02 11:27:43;;;;;;;14.93;8.27;;;;;;;19.41;69.04;101281.19;5000076;28;20038;-86
2021/07/02 11:30:37;;;;;;;12.80;8.90;;;;;;;19.55;69.28;101289.13;4993062;28;20061;-87
2021/07/02 11:33:08;;;;;;;12.50;8.00;;;;;;;19.47;67.14;101286.63;4978850;28;20058;-83
2021/07/02 11:35:45;;;;;;;12.95;8.00;;;;;;;19.50;66.74;101288.06;4979153;28;20035;-88
2021/07/02 11:38:16;;;;;;;13.23;7.72;;;;;;;19.61;67.58;101274.66;4992167;28;21009;-86
2021/07/02 11:40:51;;;;;;;10.85;6.78;;;;;;;19.77;63.57;101272.59;4968489;28;20043;-84
2021/07/02 11:43:19;;;;;;;12.23;7.20;;;;;;;19.77;65.79;101269.84;4990542;28;20038;-86
2021/07/02 11:46:22;;;;;;;12.05;8.38;;;;;;;19.88;67.92;101271.94;4983212;28;20047;-85
2021/07/02 11:48:50;;;;;;;12.93;8.27;;;;;;;20.00;64.57;101267.47;5019189;28;20038;-87
2021/07/02 11:51:18;;;;;;;14.27;8.85;;;;;;;20.03;66.44;101275.22;4988216;28;20052;-86
2021/07/02 11:54:00;;;;;;;16.23;9.30;;;;;;;20.00;66.39;101269.38;4998183;28;20045;-86
2021/07/02 11:56:32;;;;;;;14.60;10.18;;;;;;;20.06;69.46;101276.69;5029789;28;20045;-86
2021/07/02 11:59:16;;;;;;;14.55;8.63;;;;;;;19.95;66.07;101275.44;5016931;28;20070;-86
2021/07/02 12:01:47;;;;;;;14.88;9.80;;;;;;;19.82;67.65;101275.47;5000755;28;20073;-85
2021/07/02 12:04:22;;;;;;;14.60;9.15;;;;;;;19.78;66.57;101271.53;4975152;28;20030;-87
2021/07/02 12:06:52;;;;;;;15.63;10.57;;;;;;;19.85;68.98;101277.78;4995882;28;20296;-86
2021/07/02 12:09:20;;;;;;;18.42;11.48;;;;;;;19.84;69.83;101271.50;5017000;28;20045;-86
2021/07/02 12:11:52;;;;;;;14.10;9.55;;;;;;;19.78;69.29;101263.34;5020354;28;20042;-86
2021/07/02 12:14:20;;;;;;;16.88;9.73;;;;;;;19.93;71.38;101263.94;5016670;28;20042;-85
2021/07/02 12:16:48;;;;;;;15.88;10.10;;;;;;;20.02;71.38;101264.53;5014798;28;20117;-86
2021/07/02 12:22:35;;;;;;;14.40;10.40;;;;;;;19.83;70.67;101266.28;4948029;28;20114;-86
2021/07/02 12:25:01;;;;;;;16.45;10.30;;;;;;;19.72;68.14;101258.75;4963282;28;20027;-87
2021/07/02 12:27:36;;;;;;;14.48;10.35;;;;;;;19.89;71.91;101264.59;4951323;28;20047;-85
2021/07/02 12:30:02;;;;;;;15.05;11.20;;;;;;;19.91;69.84;101274.22;4967992;28;20070;-85
2021/07/02 12:32:29;;;;;;;15.68;11.10;;;;;;;19.95;71.00;101259.09;4944299;28;20051;-85
2021/07/02 12:34:55;;;;;;;18.05;10.52;;;;;;;19.95;70.85;101267.28;4946429;28;20482;-85
2021/07/02 12:37:25;;;;;;;16.83;10.50;;;;;;;20.01;68.09;101262.84;4963758;28;20141;-85
2021/07/02 12:39:56;;;;;;;14.98;10.73;;;;;;;19.98;68.33;101255.13;4973000;28;20046;-85
2021/07/02 12:42:37;;;;;;;14.85;11.15;;;;;;;20.10;70.33;101258.84;4961466;28;20042;-86
2021/07/02 12:45:06;;;;;;;17.75;11.60;;;;;;;20.16;69.48;101260.69;4969784;28;20097;-87
2021/07/02 12:47:34;;;;;;;18.77;11.23;;;;;;;20.11;67.48;101262.38;5002631;28;20041;-87
2021/07/02 12:50:04;;;;;;;17.98;11.27;;;;;;;20.10;68.76;101267.00;5022674;28;20112;-86
2021/07/02 12:55:27;;;;;;;16.77;12.13;;;;;;;20.14;68.48;101259.22;5006311;28;20132;-86
2021/07/02 12:57:54;;;;;;;17.45;12.85;;;;;;;20.12;68.58;101253.19;5006614;28;20053;-85
2021/07/02 13:04:42;;;;;;;18.70;14.48;;;;;;;20.06;69.86;101253.00;5058753;27;20203;-80
2021/07/02 13:07:07;;;;;;;17.60;13.02;;;;;;;20.11;69.24;101255.09;5040616;28;20052;-80
2021/07/02 13:09:33;;;;;;;18.33;12.43;;;;;;;20.01;67.64;101257.41;5041138;28;20036;-81
2021/07/02 13:12:15;;;;;;;15.52;12.48;;;;;;;20.13;68.50;101268.47;5034601;28;20040;-80
2021/07/02 13:14:44;;;;;;;17.15;12.32;;;;;;;20.11;69.47;101262.38;5050614;28;20045;-81
2021/07/02 13:17:12;;;;;;;16.75;12.65;;;;;;;20.05;68.49;101270.41;5047462;28;20037;-80
2021/07/02 13:19:38;;;;;;;16.60;12.02;;;;;;;20.08;68.50;101273.72;5046113;28;20045;-81
2021/07/02 13:22:17;;;;;;;17.30;11.85;;;;;;;20.00;67.14;101274.81;5046234;28;20068;-80
2021/07/02 13:24:44;;;;;;;16.50;11.75;;;;;;;20.16;70.78;101270.75;5042315;28;20037;-81
2021/07/02 13:27:16;;;;;;;17.13;11.77;;;;;;;20.11;67.50;101274.16;5044222;28;20045;-80
2021/07/02 13:29:41;;;;;;;20.63;13.57;;;;;;;20.10;71.08;101263.44;5046142;28;20409;-81
2021/07/02 13:32:14;;;;;;;19.55;12.95;;;;;;;20.21;70.95;101269.06;5046874;28;20040;-80
2021/07/02 13:34:42;;;;;;;23.63;15.48;;;;;;;20.09;69.46;101268.06;5053521;28;20041;-81
2021/07/02 13:37:08;;;;;;;18.20;13.15;;;;;;;20.15;71.59;101272.66;5042315;28;20099;-81
2021/07/02 13:39:42;;;;;;;19.00;14.50;;;;;;;20.15;70.18;101274.53;5039302;28;20044;-79
2021/07/02 13:42:09;;;;;;;23.20;14.50;;;;;;;20.05;72.34;101275.84;5043931;28;20281;-81
2021/07/02 13:44:52;;;;;;;25.70;15.02;;;;;;;19.98;73.01;101272.28;5038161;28;20073;-81
2021/07/02 13:47:25;;;;;;;23.13;14.65;;;;;;;19.82;72.28;101272.75;5000305;28;20436;-80
2021/07/02 13:49:50;;;;;;;23.15;15.00;;;;;;;19.74;73.61;101278.47;5025870;28;20046;-81
2021/07/02 13:52:15;;;;;;;21.65;15.05;;;;;;;19.70;73.75;101280.75;5039552;28;20072;-80
2021/07/02 13:54:41;;;;;;;21.35;15.82;;;;;;;19.85;74.11;101280.50;5044399;28;20130;-78
2021/07/02 13:57:06;;;;;;;21.05;14.35;;;;;;;19.90;72.98;101277.13;5058044;28;20053;-80
2021/07/02 13:59:33;;;;;;;19.70;14.15;;;;;;;19.88;73.14;101282.81;5043614;28;20053;-80
2021/07/02 14:01:59;;;;;;;20.42;15.00;;;;;;;19.75;72.26;101275.50;5050774;28;20036;-78
2021/07/02 14:04:25;;;;;;;18.98;15.18;;;;;;;19.75;71.98;101274.66;5021926;28;20063;-80
2021/07/02 14:06:50;;;;;;;22.63;15.27;;;;;;;19.86;73.03;101276.75;5048592;28;20493;-79
2021/07/02 14:09:17;;;;;;;20.38;15.90;;;;;;;20.09;74.45;101275.41;5043233;28;20041;-81
2021/07/02 14:11:43;;;;;;;24.73;16.13;;;;;;;20.11;73.46;101265.13;5047971;28;20052;-79
2021/07/02 14:14:09;;;;;;;23.73;16.23;;;;;;;20.13;73.23;101272.03;5041251;28;20132;-79
2021/07/02 14:16:35;;;;;;;19.42;14.05;;;;;;;20.23;74.38;101263.41;5029052;28;20047;-80
2021/07/02 14:19:02;;;;;;;22.02;16.23;;;;;;;20.19;72.20;101264.88;5030528;28;20091;-80
2021/07/02 14:21:28;;;;;;;22.17;15.65;;;;;;;20.26;74.69;101271.97;5035211;28;20047;-81
2021/07/02 14:23:54;;;;;;;21.88;15.98;;;;;;;20.34;75.44;101272.75;5036157;28;20393;-79
2021/07/02 14:26:19;;;;;;;19.30;14.90;;;;;;;20.59;73.02;101270.16;5017029;28;20041;-81
2021/07/02 14:28:44;;;;;;;18.77;13.07;;;;;;;20.77;72.12;101272.13;5019939;28;20635;-78
2021/07/02 14:31:10;;;;;;;18.55;13.77;;;;;;;20.92;68.60;101276.22;5031645;28;20053;-79
2021/07/02 14:33:35;;;;;;;19.15;14.65;;;;;;;21.09;72.11;101276.53;5036057;28;20048;-78
2021/07/02 14:36:01;;;;;;;18.08;14.07;;;;;;;21.06;69.38;101276.13;4877306;28;20038;-80
2021/07/02 14:38:28;;;;;;;21.45;14.98;;;;;;;21.09;71.71;101276.53;5016991;28;20116;-80
2021/07/02 14:40:54;;;;;;;19.17;14.32;;;;;;;21.14;70.18;101284.03;5010248;28;20045;-81
2021/07/02 14:43:19;;;;;;;21.60;15.60;;;;;;;21.15;70.18;101278.38;4997651;28;20104;-81
2021/07/02 14:45:45;;;;;;;20.08;13.75;;;;;;;20.92;70.51;101281.69;4997308;28;20042;-80
2021/07/02 14:48:10;;;;;;;17.90;13.45;;;;;;;20.91;69.84;101284.63;4992685;28;20104;-79
2021/07/02 14:50:36;;;;;;;26.40;15.65;;;;;;;21.01;68.05;101271.34;5011086;28;20030;-78
2021/07/02 14:53:03;;;;;;;18.38;13.88;;;;;;;21.08;70.96;101279.47;5016407;28;20429;-82
2021/07/02 14:55:33;;;;;;;18.83;13.95;;;;;;;21.07;70.30;101277.81;5016505;28;20100;-79
2021/07/02 14:57:59;;;;;;;19.50;14.70;;;;;;;21.19;72.17;101276.03;5017462;28;20088;-81
2021/07/02 15:00:27;;;;;;;18.50;14.77;;;;;;;21.44;70.84;101275.22;4994989;28;20045;-80
2021/07/02 15:02:59;;;;;;;21.10;15.13;;;;;;;21.47;67.49;101274.75;4973072;28;20317;-78
2021/07/02 15:05:26;;;;;;;20.02;15.07;;;;;;;21.52;69.51;101274.91;4992533;28;20285;-81
2021/07/02 15:07:51;;;;;;;19.40;15.27;;;;;;;21.60;67.49;101266.41;4998349;28;20472;-81
2021/07/02 15:10:17;;;;;;;23.73;16.90;;;;;;;21.75;69.27;101283.31;4988073;28;20137;-80
2021/07/02 15:12:42;;;;;;;21.10;16.20;;;;;;;21.53;69.56;101282.06;4990536;28;20267;-80
2021/07/02 15:15:08;;;;;;;19.17;14.57;;;;;;;21.46;68.05;101281.25;4994920;28;20513;-78
2021/07/02 15:17:33;;;;;;;22.35;16.67;;;;;;;21.46;71.78;101273.06;4988863;28;20041;-82
2021/07/02 15:19:59;;;;;;;22.08;16.00;;;;;;;21.39;72.71;101276.72;4980203;28;20073;-82
2021/07/02 15:22:25;;;;;;;20.95;16.35;;;;;;;21.50;74.84;101283.34;4995264;28;20050;-81
2021/07/02 15:24:50;;;;;;;21.17;17.05;;;;;;;21.25;71.91;101286.03;4992436;28;20034;-83
2021/07/02 15:27:17;;;;;;;24.48;17.67;;;;;;;21.13;72.28;101290.56;4989722;28;20050;-82
2021/07/02 15:30:20;;;;;;;22.55;16.60;;;;;;;21.09;72.95;101286.59;5002259;28;20367;-80
2021/07/02 15:32:46;;;;;;;20.63;16.65;;;;;;;21.23;74.44;101277.22;5003165;28;20052;-83
2021/07/02 15:35:13;;;;;;;22.13;16.45;;;;;;;21.22;73.57;101288.38;4984539;28;20129;-80
2021/07/02 15:37:39;;;;;;;24.10;16.50;;;;;;;21.01;71.37;101275.97;4999943;28;20042;-79
2021/07/02 15:40:06;;;;;;;22.63;15.77;;;;;;;20.93;74.04;101288.81;5003872;28;20033;-81
2021/07/02 15:42:31;;;;;;;23.10;15.60;;;;;;;21.05;74.20;101291.66;5010193;28;20238;-82
2021/07/02 15:44:56;;;;;;;21.63;15.40;;;;;;;20.94;74.31;101292.38;5012601;28;20149;-80
2021/07/02 15:47:22;;;;;;;20.83;15.05;;;;;;;20.88;72.22;101295.97;4995880;28;20034;-80
2021/07/02 15:49:47;;;;;;;18.60;13.73;;;;;;;20.90;72.24;101286.53;5012694;28;20038;-79
2021/07/02 15:52:13;;;;;;;21.38;15.18;;;;;;;20.86;72.40;101296.22;5011511;28;20486;-80
2021/07/02 15:54:38;;;;;;;17.23;12.98;;;;;;;20.84;70.53;101284.69;5019650;28;20048;-82
2021/07/02 15:57:28;;;;;;;18.35;13.35;;;;;;;20.92;71.62;101287.16;4985323;28;20273;-82
2021/07/02 16:00:36;;;;;;;18.63;12.55;;;;;;;20.93;71.88;101294.25;4973982;28;20049;-80
2021/07/02 16:03:01;;;;;;;21.03;12.77;;;;;;;20.68;70.85;101293.38;4951315;28;20046;-81
2021/07/02 16:05:28;;;;;;;20.77;13.82;;;;;;;20.63;71.90;101285.00;4943098;28;20298;-79
2021/07/02 16:08:16;;;;;;;17.98;13.60;;;;;;;20.63;73.73;101293.19;4885507;28;20524;-82
2021/07/02 16:10:43;;;;;;;22.30;15.27;;;;;;;20.77;72.21;101294.78;4928286;28;20098;-80
2021/07/02 16:13:09;;;;;;;21.17;15.07;;;;;;;20.86;71.81;101296.22;4910926;28;20040;-80
2021/07/02 16:15:34;;;;;;;21.00;15.00;;;;;;;20.98;74.26;101300.97;4923296;28;20039;-80
2021/07/02 16:18:03;;;;;;;22.25;15.32;;;;;;;21.03;71.64;101293.78;4917534;28;20048;-80
2021/07/02 16:20:32;;;;;;;22.35;14.68;;;;;;;21.06;75.75;101303.41;4921874;28;20090;-81
2021/07/02 16:22:57;;;;;;;20.88;14.95;;;;;;;21.00;74.90;101301.56;4903285;28;20076;-80
2021/07/02 16:25:23;;;;;;;21.30;15.95;;;;;;;20.93;75.46;101305.16;4887179;29;20040;-80
2021/07/02 16:27:49;;;;;;;20.42;14.27;;;;;;;20.80;73.90;101305.28;4924215;28;20139;-80
2021/07/02 16:30:14;;;;;;;19.95;15.43;;;;;;;20.81;78.41;101304.22;4960247;28;20062;-79
2021/07/02 16:32:40;;;;;;;23.30;15.65;;;;;;;20.90;76.86;101300.16;4928750;28;20479;-82
2021/07/02 16:35:06;;;;;;;19.65;14.20;;;;;;;21.31;74.78;101304.25;4975039;28;20042;-81
2021/07/02 16:37:31;;;;;;;21.42;14.40;;;;;;;21.50;74.15;101304.34;4969467;28;20049;-81
2021/07/02 16:39:56;;;;;;;19.40;14.07;;;;;;;21.37;73.82;101308.00;4995843;28;20111;-79
2021/07/02 16:42:22;;;;;;;19.20;14.45;;;;;;;21.18;74.04;101302.47;4979598;28;20668;-81
2021/07/02 16:44:47;;;;;;;18.33;13.02;;;;;;;21.22;75.10;101302.03;4986941;28;20130;-80
2021/07/02 16:47:13;;;;;;;18.98;12.93;;;;;;;21.24;74.25;101302.66;5006012;28;20402;-80
2021/07/02 16:49:38;;;;;;;17.88;12.35;;;;;;;21.38;74.83;101296.88;5004868;28;20038;-82
2021/07/02 16:52:04;;;;;;;17.83;13.05;;;;;;;21.52;72.89;101296.75;5001200;28;20038;-81
2021/07/02 16:54:30;;;;;;;16.67;12.90;;;;;;;;;;5002258;28;20244;-82
2021/07/02 16:56:56;;;;;;;17.00;12.02;;;;;;;22.09;73.62;101286.47;5005859;28;20041;-82
2021/07/02 16:59:22;;;;;;;15.60;11.63;;;;;;;22.04;70.26;101280.88;4989620;28;20038;-80
2021/07/02 17:01:51;;;;;;;20.20;11.45;;;;;;;22.01;69.88;101284.91;5002963;28;20910;-81
2021/07/02 17:04:19;;;;;;;15.02;10.63;;;;;;;21.86;69.12;101279.78;4971267;28;20506;-81
2021/07/02 17:06:45;;;;;;;16.15;12.43;;;;;;;21.99;71.83;101283.44;4996544;28;20037;-80
2021/07/02 17:09:10;;;;;;;19.10;11.45;;;;;;;22.20;72.06;101269.34;5004439;28;20030;-82
2021/07/02 17:11:37;;;;;;;15.68;10.10;;;;;;;22.38;70.07;101267.63;5007579;28;20034;-81
2021/07/02 17:14:04;;;;;;;13.45;9.95;;;;;;;22.46;67.61;101270.06;5002483;28;20048;-82
2021/07/02 17:16:29;;;;;;;13.30;9.40;;;;;;;22.33;68.02;101260.13;4988792;28;20459;-79
2021/07/02 17:18:55;;;;;;;14.18;9.63;;;;;;;22.37;69.35;101272.28;4995418;28;20145;-80
2021/07/02 17:21:20;;;;;;;11.45;8.18;;;;;;;22.13;66.60;101270.47;5003806;28;20255;-81
2021/07/02 17:23:47;;;;;;;11.75;8.73;;;;;;;22.28;68.44;101268.19;4987023;28;20066;-80
2021/07/02 17:26:14;;;;;;;12.07;9.00;;;;;;;22.08;67.08;101279.34;5002891;28;20053;-79
2021/07/02 17:28:39;;;;;;;12.50;8.80;;;;;;;22.00;66.25;101269.53;5001093;28;20034;-81
2021/07/02 17:31:06;;;;;;;12.05;8.05;;;;;;;22.08;70.81;101273.88;5004239;28;20034;-81
2021/07/02 17:33:32;;;;;;;11.73;8.68;;;;;;;22.13;69.24;101270.47;5013262;28;20116;-81
2021/07/02 17:35:57;;;;;;;12.30;9.10;;;;;;;22.26;68.55;101275.78;4999425;28;20145;-82
2021/07/02 17:38:23;;;;;;;12.80;9.63;;;;;;;22.16;67.08;101275.47;4998241;28;20046;-80
2021/07/02 17:40:50;;;;;;;13.10;9.35;;;;;;;21.93;67.00;101281.63;5003626;28;20034;-81
2021/07/02 17:43:15;;;;;;;11.65;9.15;;;;;;;21.92;67.86;101280.78;5002559;28;20049;-79
2021/07/02 17:45:40;;;;;;;11.77;8.55;;;;;;;21.95;69.66;101280.34;4997814;28;20042;-80
2021/07/02 17:48:06;;;;;;;13.70;10.18;;;;;;;21.94;69.00;101280.56;5001654;28;20126;-81
2021/07/02 17:50:31;;;;;;;14.70;10.07;;;;;;;22.00;67.85;101276.91;4998946;28;20041;-81
2021/07/02 17:52:57;;;;;;;13.23;9.23;;;;;;;21.90;68.21;101276.63;5008014;28;20030;-81
2021/07/02 17:55:22;;;;;;;12.68;9.98;;;;;;;21.84;69.45;101275.63;5009885;28;20045;-82
2021/07/02 17:57:48;;;;;;;13.70;10.65;;;;;;;21.92;70.30;101271.75;4978390;28;20570;-80
2021/07/02 18:00:13;;;;;;;11.75;9.18;;;;;;;22.05;69.66;101274.34;4987135;28;20042;-81
2021/07/02 18:02:39;;;;;;;14.18;9.35;;;;;;;22.15;71.27;101277.34;5009975;28;20054;-80
2021/07/02 18:05:05;;;;;;;18.50;12.05;;;;;;;22.12;69.89;101275.06;5019867;28;20048;-82
2021/07/02 18:07:30;;;;;;;15.23;10.75;;;;;;;21.89;67.65;101270.31;4991938;28;20041;-81
2021/07/02 18:09:56;;;;;;;14.75;11.18;;;;;;;21.77;69.45;101270.22;5003426;28;20429;-80
2021/07/02 18:12:21;;;;;;;13.68;10.05;;;;;;;21.70;69.80;101263.19;5020035;28;20045;-81
2021/07/02 18:14:48;;;;;;;14.70;10.80;;;;;;;21.65;70.42;101277.50;5013230;28;20115;-81
2021/07/02 18:17:14;;;;;;;13.35;9.63;;;;;;;21.75;69.71;101268.78;5004307;28;20117;-81
2021/07/02 18:19:39;;;;;;;15.85;10.18;;;;;;;21.77;69.94;101272.13;5007917;28;20124;-80
2021/07/02 18:22:06;;;;;;;16.08;10.73;;;;;;;21.68;69.57;101277.06;5030043;28;20045;-81
2021/07/02 18:24:31;;;;;;;15.20;10.52;;;;;;;21.68;72.16;101268.88;5016389;28;20045;-81
2021/07/02 18:26:57;;;;;;;16.65;12.02;;;;;;;21.31;70.09;101266.03;5042806;28;20060;-80
2021/07/02 18:29:22;;;;;;;13.98;10.95;;;;;;;21.27;72.55;101267.56;5024098;28;20072;-79
2021/07/02 18:31:48;;;;;;;15.35;12.00;;;;;;;21.22;73.83;101264.66;5044990;28;20040;-80
2021/07/02 18:34:14;;;;;;;15.98;12.10;;;;;;;21.10;74.94;101263.72;5017504;28;20038;-79
2021/07/02 18:36:39;;;;;;;15.85;11.25;;;;;;;20.95;74.27;101264.06;5042193;28;20037;-80
2021/07/02 18:39:05;;;;;;;15.30;11.13;;;;;;;20.98;74.88;101265.50;5037040;28;20048;-79
2021/07/02 18:41:31;;;;;;;24.02;13.95;;;;;;;20.78;75.49;101268.38;5039495;28;20037;-79
2021/07/02 18:43:57;;;;;;;20.45;13.43;;;;;;;20.64;75.96;101271.19;5025068;28;20042;-80
2021/07/02 18:46:22;;;;;;;19.90;14.38;;;;;;;20.54;77.71;101267.25;5021380;28;20056;-79
2021/07/02 18:48:47;;;;;;;20.58;14.27;;;;;;;20.50;77.42;101273.09;5012812;28;20126;-81
2021/07/02 18:51:14;;;;;;;21.05;15.18;;;;;;;20.40;77.22;101267.31;5009058;28;20042;-81
2021/07/02 18:53:39;;;;;;;18.95;14.50;;;;;;;20.28;77.98;101269.03;5019513;28;20063;-80
2021/07/02 18:56:05;;;;;;;20.58;14.77;;;;;;;20.32;79.05;101262.09;5009911;28;20045;-80
2021/07/02 18:58:31;;;;;;;25.15;14.98;;;;;;;20.29;78.89;101265.25;4990585;28;20243;-79
2021/07/02 19:00:57;;;;;;;22.58;15.68;;;;;;;20.29;79.40;101271.53;4997255;28;20404;-79
2021/07/02 19:03:22;;;;;;;21.05;16.05;;;;;;;20.29;79.92;101260.66;5013105;28;20073;-80
2021/07/02 19:05:47;;;;;;;23.25;14.95;;;;;;;20.06;78.91;101258.44;5016276;28;20149;-79
2021/07/02 19:08:13;;;;;;;23.27;15.05;;;;;;;20.06;79.49;101261.16;5028119;28;20076;-79
2021/07/02 19:10:39;;;;;;;22.35;16.40;;;;;;;19.99;79.51;101254.88;5012894;28;20655;-79
2021/07/02 19:13:04;;;;;;;22.55;15.95;;;;;;;19.87;79.20;101255.78;5016640;28;20297;-79
2021/07/02 19:15:30;;;;;;;20.27;15.18;;;;;;;19.94;80.33;101257.44;5034549;28;20041;-80
2021/07/02 19:17:57;;;;;;;24.60;15.95;;;;;;;19.84;79.67;101257.88;5038898;28;20040;-80
2021/07/02 19:20:23;;;;;;;22.20;15.88;;;;;;;19.77;80.53;101256.25;5018298;28;20127;-79
2021/07/02 19:22:49;;;;;;;23.00;15.90;;;;;;;19.66;81.01;101260.44;5018566;28;20641;-81
2021/07/02 19:25:17;;;;;;;23.77;16.77;;;;;;;19.70;81.56;101249.97;5012156;28;20133;-79
2021/07/02 19:27:44;;;;;;;22.73;16.17;;;;;;;19.66;81.87;101255.00;5025426;28;20045;-79